• Join FlightAware (Why Join?)
  • Login
  • US Flag 
10:52PM EDT


 

Airport Tracker/Info


-or-


 

Live Flight TrackerFlight Track Log ✈ VH-BLD ✈ 24-Jul-2013 ✈ YBCG / OOL - YBAF

Flight Track Log - Related Links

Times and Time Zones

All times are in EDT time to prevent confusion due to time zone crossing. See the VH-BLD flight status page for this flight to view local times or setup timezone preferences in your user account.

Time Position Orientation Groundspeed Altitude Reporting Facility
EDT Latitude Longitude Course Direction KTS MPH feet Rate Location/Type
09:28PM -28.1644 153.5048 323° Northwest  Level Aus ATC (Calculated)
09:30PM -28.1427 153.4865 323° Northwest  Level FlightAware Approximate
09:30PM -28.0902 153.4424 143° Southeast  Level Aus ATC (Calculated)
09:31PM -28.1279 153.4741 323° Northwest  Level FlightAware Approximate
09:31PM -28.0902 153.4424 323° Northwest  Level Aus ATC (Calculated)
09:32PM -28.0746 153.4293 323° Northwest  Level FlightAware Approximate
09:32PM -28.0253 153.3879 143° Southeast  Level Aus ATC (Calculated)
09:33PM -28.0643 153.4206 323° Northwest  Level FlightAware Approximate
09:34PM -28.0102 153.3752 323° Northwest  Level FlightAware Approximate
09:35PM -27.9954 153.3628 323° Northwest  Level FlightAware Approximate
09:36PM -27.9806 153.3504 323° Northwest  Level FlightAware Approximate
09:37PM -27.9658 153.3380 323° Northwest  Level FlightAware Approximate
09:37PM -27.9117 153.2926 360° North  Level Aus ATC (Calculated)
09:38PM -27.9117 153.2926 323° Northwest  Level Aus ATC (Calculated)
09:40PM -27.8889 153.2736 324° Northwest  Level FlightAware Approximate
09:41PM -27.8741 153.2612 324° Northwest  Level FlightAware Approximate
09:41PM -27.8264 153.2213 143° Southeast  Level Aus ATC (Calculated)
09:42PM -27.8593 153.2488 324° Northwest  Level FlightAware Approximate
09:43PM -27.8037 153.2023 324° Northwest  Level FlightAware Approximate
09:44PM -27.7888 153.1899 324° Northwest  Level FlightAware Approximate
09:45PM -27.7740 153.1775 324° Northwest  Level FlightAware Approximate
09:46PM -27.7592 153.1652 324° Northwest  Level FlightAware Approximate
09:47PM -27.7444 153.1528 324° Northwest  Level FlightAware Approximate
09:48PM -27.7295 153.1404 324° Northwest  Level FlightAware Approximate
09:49PM -27.7147 153.1281 324° Northwest  Level FlightAware Approximate
09:50PM -27.6999 153.1157 324° Northwest  Level FlightAware Approximate
09:51PM -27.6850 153.1034 324° Northwest  Level FlightAware Approximate
09:52PM -27.6702 153.0910 324° Northwest  Level FlightAware Approximate
09:53PM -27.6553 153.0787 324° Northwest  Level FlightAware Approximate
09:54PM -27.6405 153.0663 324° Northwest  Level FlightAware Approximate
09:55PM -27.6257 153.0540 324° Northwest  Level FlightAware Approximate
09:56PM -27.6108 153.0416 324° Northwest  Level FlightAware Approximate
09:57PM -27.5960 153.0293 324° Northwest  Level FlightAware Approximate
09:58PM -27.5811 153.0170 324° Northwest  Level FlightAware Approximate
09:59PM -27.5663 153.0047 324° Northwest  Level FlightAware Approximate
10:00PM -27.5703 153.0081 144° Southeast  Level Estimated
10:01PM -27.5703 153.0081 206° Southwest  Level Estimated
10:02PM -27.5703 153.0081 206° Southwest  Level Estimated
10:03PM -27.5703 153.0081 206° Southwest  Level Estimated
10:04PM -27.5703 153.0081 206° Southwest  Level Estimated
10:05PM -27.5703 153.0081 206° Southwest  Level Estimated
10:06PM -27.5703 153.0081 206° Southwest  Level Estimated
10:07PM -27.5703 153.0081 206° Southwest  Level Estimated
10:08PM -27.5703 153.0081 206° Southwest  Level Estimated
10:09PM -27.5703 153.0081 323° Northwest  Level Estimated
10:10PM -27.5703 153.0081 323° Northwest  Level Estimated
10:11PM -27.5703 153.0081 323° Northwest  Level Estimated
10:12PM -27.5703 153.0081 323° Northwest  Level Estimated
10:13PM -27.5703 153.0081 323° Northwest  Level Estimated
10:14PM -27.5703 153.0081 323° Northwest  Level Estimated
10:15PM -27.5703 153.0081 323° Northwest  Level Estimated
10:16PM -27.5703 153.0081 323° Northwest  Level Estimated
10:17PM -27.5703 153.0081 323° Northwest  Level Estimated
10:18PM -27.5703 153.0081 323° Northwest  Level Estimated
10:19PM -27.5703 153.0081 323° Northwest  Level Estimated
10:20PM -27.5703 153.0081 323° Northwest  Level Estimated
10:21PM -27.5703 153.0081 323° Northwest  Level Estimated
10:22PM -27.5703 153.0081 323° Northwest  Level Estimated
10:23PM -27.5703 153.0081 323° Northwest  Level Estimated